createdAt,value
2022-08-07T00:00:11.464Z,19.71
2022-08-07T00:01:43.026Z,19.75
2022-08-07T00:02:36.291Z,19.78
2022-08-07T00:03:12.394Z,19.78
2022-08-07T00:04:15.355Z,19.78
2022-08-07T00:05:11.381Z,19.76
2022-08-07T00:06:11.367Z,19.76
2022-08-07T00:07:11.237Z,19.77
2022-08-07T00:08:11.225Z,19.76
2022-08-07T00:09:17.099Z,19.72
2022-08-07T00:10:27.039Z,19.70
2022-08-07T00:11:12.195Z,19.68
2022-08-07T00:12:15.255Z,19.71
2022-08-07T00:13:23.657Z,19.73
2022-08-07T00:14:12.165Z,19.76
2022-08-07T00:15:11.288Z,19.74
2022-08-07T00:16:11.136Z,19.70
2022-08-07T00:17:12.107Z,19.67
2022-08-07T00:18:19.173Z,19.62
2022-08-07T00:19:21.504Z,19.58
2022-08-07T00:20:15.642Z,19.55
2022-08-07T00:21:56.352Z,19.54
2022-08-07T00:22:12.125Z,19.52
2022-08-07T00:23:12.146Z,19.47
2022-08-07T00:24:11.007Z,19.45
2022-08-07T00:25:16.681Z,19.42
2022-08-07T00:26:18.874Z,19.41
2022-08-07T00:27:11.968Z,19.41
2022-08-07T00:28:10.976Z,19.42
2022-08-07T00:29:11.024Z,19.43
2022-08-07T00:30:26.706Z,19.41
2022-08-07T00:31:12.702Z,19.42
2022-08-07T00:32:10.927Z,19.41
2022-08-07T00:33:10.989Z,19.42
2022-08-07T00:34:10.873Z,19.40
2022-08-07T00:35:11.037Z,19.41
2022-08-07T00:36:11.841Z,19.39
2022-08-07T00:37:11.889Z,19.36
2022-08-07T00:38:10.840Z,19.35
2022-08-07T00:39:16.339Z,19.36
2022-08-07T00:40:11.799Z,19.37
2022-08-07T00:41:14.634Z,19.37
2022-08-07T00:42:10.762Z,19.35
2022-08-07T00:43:58.650Z,19.30
2022-08-07T00:44:11.760Z,19.26
2022-08-07T00:45:10.918Z,19.23
2022-08-07T00:46:11.711Z,19.21
2022-08-07T00:47:15.907Z,19.22
2022-08-07T00:48:11.926Z,19.22
2022-08-07T00:49:10.779Z,19.21
2022-08-07T00:50:20.850Z,19.22
2022-08-07T00:51:11.658Z,19.22
2022-08-07T00:52:33.196Z,19.19
2022-08-07T00:53:10.632Z,19.18
2022-08-07T00:56:00.508Z,18.69
2022-08-07T00:56:30.365Z,18.70
2022-08-07T00:57:25.212Z,18.90
2022-08-07T00:58:22.871Z,19.02
2022-08-07T00:59:35.387Z,19.08
2022-08-07T01:00:23.822Z,19.09
2022-08-07T01:01:22.994Z,19.11
2022-08-07T01:02:29.321Z,19.10
2022-08-07T01:03:54.600Z,19.12
2022-08-07T01:04:24.944Z,19.14
2022-08-07T01:05:24.631Z,19.17
2022-08-07T01:06:22.959Z,19.20
2022-08-07T01:07:22.705Z,19.17
2022-08-07T01:08:22.849Z,19.12
2022-08-07T01:10:04.196Z,19.10
2022-08-07T01:10:23.671Z,19.09
2022-08-07T01:12:04.842Z,19.09
2022-08-07T01:12:29.825Z,19.13
2022-08-07T01:13:23.633Z,19.17
2022-08-07T01:14:28.534Z,19.17
2022-08-07T01:15:35.896Z,19.19
2022-08-07T01:16:30.255Z,19.16
2022-08-07T01:17:23.575Z,19.14
2022-08-07T01:18:22.677Z,19.12
2022-08-07T01:19:22.546Z,19.09
2022-08-07T01:20:43.625Z,19.05
2022-08-07T01:21:25.865Z,19.03
2022-08-07T01:22:29.162Z,19.01
2022-08-07T01:23:32.684Z,19.02
2022-08-07T01:24:23.475Z,19.05
2022-08-07T01:25:53.589Z,19.05
2022-08-07T01:26:23.456Z,19.04
2022-08-07T01:27:23.546Z,19.05
2022-08-07T01:28:23.420Z,19.03
2022-08-07T01:29:22.616Z,19.01
2022-08-07T01:30:22.396Z,19.03
2022-08-07T01:31:22.935Z,19.05
2022-08-07T01:32:23.490Z,19.08
2022-08-07T01:33:22.591Z,19.08
2022-08-07T01:34:24.033Z,19.09
2022-08-07T01:35:24.336Z,19.14
2022-08-07T01:36:22.437Z,19.17
2022-08-07T01:37:23.429Z,19.20
2022-08-07T01:38:24.941Z,19.21
2022-08-07T01:39:22.298Z,19.21
2022-08-07T01:40:22.367Z,19.22
2022-08-07T01:41:25.853Z,19.22
2022-08-07T01:42:38.729Z,19.23
2022-08-07T01:43:23.229Z,19.24
2022-08-07T01:44:23.411Z,19.26
2022-08-07T01:45:22.785Z,19.28
2022-08-07T01:46:23.210Z,19.29
2022-08-07T01:48:19.666Z,19.29
2022-08-07T01:48:30.177Z,19.27
2022-08-07T01:49:23.143Z,19.26
2022-08-07T01:50:22.788Z,19.23
2022-08-07T01:51:58.812Z,19.23
2022-08-07T01:52:23.120Z,19.23
2022-08-07T01:54:08.848Z,19.24
2022-08-07T01:54:32.847Z,19.24
2022-08-07T01:55:24.226Z,19.25
2022-08-07T01:56:22.097Z,19.22
2022-08-07T01:57:24.704Z,19.21
2022-08-07T01:58:27.265Z,19.23
2022-08-07T01:59:23.042Z,19.24
2022-08-07T02:00:29.020Z,19.26
2022-08-07T02:01:59.236Z,19.29
2022-08-07T02:02:32.759Z,19.31
2022-08-07T02:03:25.001Z,19.30
2022-08-07T02:04:22.041Z,19.24
2022-08-07T02:05:47.510Z,19.20
2022-08-07T02:06:31.615Z,19.19
2022-08-07T02:07:22.900Z,19.18
2022-08-07T02:08:23.871Z,19.15
2022-08-07T02:09:51.958Z,19.15
2022-08-07T02:10:23.984Z,19.13
2022-08-07T02:11:30.733Z,19.09
2022-08-07T02:12:29.367Z,19.06
2022-08-07T02:13:22.963Z,19.05
2022-08-07T02:14:36.178Z,19.07
2022-08-07T02:15:22.791Z,19.09
2022-08-07T02:16:28.753Z,19.09
2022-08-07T02:17:25.000Z,19.09
2022-08-07T02:18:22.743Z,19.11
2022-08-07T02:20:04.156Z,19.08
2022-08-07T02:20:23.330Z,19.06
2022-08-07T02:21:21.707Z,19.03
2022-08-07T02:22:21.850Z,19.00
2022-08-07T02:23:23.782Z,18.98
2022-08-07T02:24:21.775Z,18.97
2022-08-07T02:25:21.655Z,19.00
2022-08-07T02:26:32.989Z,19.02
2022-08-07T02:27:22.859Z,19.02
2022-08-07T02:28:24.453Z,19.01
2022-08-07T02:29:21.939Z,19.00
2022-08-07T02:30:21.700Z,18.98
2022-08-07T02:31:28.726Z,18.99
2022-08-07T02:32:23.524Z,18.95
2022-08-07T02:33:22.544Z,18.92
2022-08-07T02:34:23.832Z,18.93
2022-08-07T02:36:28.701Z,18.94
2022-08-07T02:36:30.526Z,18.97
2022-08-07T02:37:22.495Z,18.98
2022-08-07T02:38:22.705Z,18.95
2022-08-07T02:39:43.030Z,18.94
2022-08-07T02:40:30.823Z,18.93
2022-08-07T02:41:22.568Z,18.94
2022-08-07T02:42:22.416Z,18.96
2022-08-07T02:43:21.564Z,18.96
2022-08-07T02:44:21.407Z,18.93
2022-08-07T02:46:00.876Z,18.93
2022-08-07T02:46:22.485Z,18.96
2022-08-07T02:47:23.505Z,19.00
2022-08-07T02:48:21.418Z,19.05
2022-08-07T02:49:28.655Z,19.06
2022-08-07T02:50:22.338Z,19.05
2022-08-07T02:51:41.854Z,19.02
2022-08-07T02:52:22.286Z,19.00
2022-08-07T02:53:22.272Z,19.01
2022-08-07T02:54:22.256Z,18.99
2022-08-07T02:55:28.696Z,18.99
2022-08-07T02:56:22.432Z,18.99
2022-08-07T02:57:21.263Z,18.95
2022-08-07T02:58:21.600Z,18.91
2022-08-07T02:59:23.999Z,18.91
2022-08-07T03:00:22.178Z,18.87
2022-08-07T03:01:36.688Z,18.87
2022-08-07T03:02:22.169Z,18.86
2022-08-07T03:03:22.859Z,18.86
2022-08-07T03:04:21.135Z,18.85
2022-08-07T03:05:23.145Z,18.87
2022-08-07T03:06:26.158Z,18.89
2022-08-07T03:07:43.296Z,18.89
2022-08-07T03:08:26.969Z,18.87
2022-08-07T03:09:43.398Z,18.89
2022-08-07T03:10:23.444Z,18.90
2022-08-07T03:11:21.029Z,18.91
2022-08-07T03:12:22.463Z,18.90
2022-08-07T03:13:22.012Z,18.91
2022-08-07T03:14:22.481Z,18.94
2022-08-07T03:15:30.183Z,18.95
2022-08-07T03:16:27.674Z,18.91
2022-08-07T03:17:22.346Z,18.88
2022-08-07T03:18:20.931Z,18.87
2022-08-07T03:19:20.932Z,18.87
2022-08-07T03:20:20.991Z,18.85
2022-08-07T03:21:20.899Z,18.83
2022-08-07T03:22:21.010Z,18.85
2022-08-07T03:23:20.861Z,18.88
2022-08-07T03:24:27.197Z,18.89
2022-08-07T03:25:21.873Z,18.89
2022-08-07T03:26:23.693Z,18.87
2022-08-07T03:27:30.783Z,18.87
2022-08-07T03:28:37.353Z,18.89
2022-08-07T03:29:21.796Z,18.90
2022-08-07T03:31:43.325Z,18.39
2022-08-07T03:32:31.214Z,18.40
2022-08-07T03:33:32.277Z,18.63
2022-08-07T03:34:31.113Z,18.75
2022-08-07T03:35:43.748Z,18.84
2022-08-07T03:36:31.093Z,18.87
2022-08-07T03:37:32.646Z,18.89
2022-08-07T03:38:33.363Z,18.87
2022-08-07T03:39:45.930Z,18.82
2022-08-07T03:40:36.674Z,18.78
2022-08-07T03:41:42.560Z,18.77
2022-08-07T03:42:31.004Z,18.77
2022-08-07T03:43:32.398Z,18.79
2022-08-07T03:44:34.243Z,18.78
2022-08-07T03:45:31.398Z,18.73
2022-08-07T03:46:30.147Z,18.69
2022-08-07T03:47:47.949Z,18.69
2022-08-07T03:48:30.926Z,18.71
2022-08-07T03:49:30.062Z,18.74
2022-08-07T03:50:29.864Z,18.74
2022-08-07T03:51:30.889Z,18.71
2022-08-07T03:52:31.996Z,18.68
2022-08-07T03:54:00.723Z,18.66
2022-08-07T03:54:35.289Z,18.63
2022-08-07T03:55:52.852Z,18.60
2022-08-07T03:56:32.566Z,18.56
2022-08-07T03:58:35.293Z,18.54
2022-08-07T03:59:07.309Z,18.55
2022-08-07T03:59:32.937Z,18.58
2022-08-07T04:00:33.434Z,18.61
2022-08-07T04:01:29.783Z,18.62
2022-08-07T04:02:29.824Z,18.64
2022-08-07T04:03:29.696Z,18.63
2022-08-07T04:04:32.836Z,18.65
2022-08-07T04:05:40.591Z,18.68
2022-08-07T04:06:37.442Z,18.67
2022-08-07T04:07:41.619Z,18.64
2022-08-07T04:08:30.638Z,18.63
2022-08-07T04:09:45.318Z,18.61
2022-08-07T04:10:30.606Z,18.57
2022-08-07T04:12:26.431Z,18.56
2022-08-07T04:12:30.608Z,18.53
2022-08-07T04:13:29.667Z,18.53
2022-08-07T04:14:38.033Z,18.56
2022-08-07T04:15:30.547Z,18.60
2022-08-07T04:16:32.305Z,18.61
2022-08-07T04:18:11.238Z,18.61
2022-08-07T04:18:58.500Z,18.61
2022-08-07T04:19:50.927Z,18.62
2022-08-07T04:20:30.728Z,18.62
2022-08-07T04:21:31.881Z,18.60
2022-08-07T04:22:30.023Z,18.61
2022-08-07T04:23:44.004Z,18.60
2022-08-07T04:24:38.713Z,18.59
2022-08-07T04:25:30.398Z,18.59
2022-08-07T04:26:30.389Z,18.57
2022-08-07T04:27:36.029Z,18.54
2022-08-07T04:28:30.360Z,18.53
2022-08-07T04:29:49.051Z,18.51
2022-08-07T04:30:39.498Z,18.49
2022-08-07T04:32:02.125Z,18.50
2022-08-07T04:32:34.218Z,18.53
2022-08-07T04:33:29.299Z,18.57
2022-08-07T04:34:33.342Z,18.60
2022-08-07T04:35:35.498Z,18.63
2022-08-07T04:36:30.281Z,18.62
2022-08-07T04:37:29.291Z,18.59
2022-08-07T04:38:30.230Z,18.58
2022-08-07T04:39:35.881Z,18.55
2022-08-07T04:40:32.250Z,18.51
2022-08-07T04:41:29.264Z,18.49
2022-08-07T04:42:30.191Z,18.52
2022-08-07T04:44:12.888Z,18.55
2022-08-07T04:44:30.150Z,18.58
2022-08-07T04:45:57.917Z,18.58
2022-08-07T04:46:34.364Z,18.57
2022-08-07T04:48:10.235Z,18.55
2022-08-07T04:48:30.091Z,18.56
2022-08-07T04:49:29.266Z,18.56
2022-08-07T04:50:30.059Z,18.56
2022-08-07T04:51:32.111Z,18.56
2022-08-07T04:52:29.031Z,18.56
2022-08-07T04:54:01.090Z,18.58
2022-08-07T04:54:30.514Z,18.58
2022-08-07T04:58:12.971Z,18.56
2022-08-07T04:58:13.817Z,18.57
2022-08-07T04:58:24.304Z,18.53
2022-08-07T04:58:38.956Z,18.52
2022-08-07T05:00:11.170Z,18.53
2022-08-07T05:00:30.953Z,18.54
2022-08-07T05:01:29.988Z,18.55
2022-08-07T05:02:28.973Z,18.57
2022-08-07T05:03:59.921Z,18.61
2022-08-07T05:04:29.893Z,18.66
2022-08-07T05:05:53.417Z,18.72
2022-08-07T05:06:29.843Z,18.73
2022-08-07T05:07:37.106Z,18.73
2022-08-07T05:08:59.894Z,18.73
2022-08-07T05:09:45.858Z,18.74
2022-08-07T05:10:29.894Z,18.74
2022-08-07T05:11:57.243Z,18.76
2022-08-07T05:12:30.522Z,18.79
2022-08-07T05:14:53.475Z,18.86
2022-08-07T05:14:54.447Z,18.83
2022-08-07T05:15:29.727Z,18.89
2022-08-07T05:16:28.884Z,18.90
2022-08-07T05:17:52.290Z,18.92
2022-08-07T05:18:29.833Z,18.92
2022-08-07T05:19:44.088Z,18.91
2022-08-07T05:20:29.662Z,18.88
2022-08-07T05:21:59.413Z,18.84
2022-08-07T05:22:29.815Z,18.78
2022-08-07T05:23:30.918Z,18.76
2022-08-07T05:24:30.417Z,18.69
2022-08-07T05:26:11.084Z,18.63
2022-08-07T05:26:29.575Z,18.61
2022-08-07T05:28:01.979Z,18.59
2022-08-07T05:28:29.713Z,18.60
2022-08-07T05:29:48.130Z,18.63
2022-08-07T05:30:32.755Z,18.66
2022-08-07T05:31:35.119Z,18.68
2022-08-07T05:32:29.497Z,18.69
2022-08-07T05:33:29.606Z,18.69
2022-08-07T05:34:28.495Z,18.72
2022-08-07T05:35:33.221Z,18.74
2022-08-07T05:36:30.531Z,18.75
2022-08-07T05:37:28.585Z,18.78
2022-08-07T05:38:59.609Z,18.79
2022-08-07T05:40:13.549Z,18.81
2022-08-07T05:40:29.421Z,18.84
2022-08-07T05:42:00.499Z,18.86
2022-08-07T05:42:34.384Z,18.89
2022-08-07T05:43:49.890Z,18.90
2022-08-07T05:44:29.867Z,18.90
2022-08-07T05:45:46.891Z,18.94
2022-08-07T05:46:29.496Z,18.97
2022-08-07T05:47:38.328Z,19.01
2022-08-07T05:48:29.288Z,19.03
2022-08-07T05:49:40.642Z,19.03
2022-08-07T05:50:29.277Z,19.05
2022-08-07T05:51:31.744Z,19.05
2022-08-07T05:52:32.221Z,19.08
2022-08-07T05:54:12.983Z,19.14
2022-08-07T05:54:30.878Z,19.19
2022-08-07T05:56:03.162Z,19.25
2022-08-07T05:56:30.011Z,19.32
2022-08-07T05:57:30.055Z,19.40
2022-08-07T05:58:36.709Z,19.49
2022-08-07T05:59:29.138Z,19.49
2022-08-07T06:00:29.130Z,19.47
2022-08-07T06:01:35.678Z,19.47
2022-08-07T06:02:30.549Z,19.46
2022-08-07T06:03:28.222Z,19.43
2022-08-07T06:04:30.267Z,19.42
2022-08-07T06:05:56.435Z,19.40
2022-08-07T06:06:29.760Z,19.39
2022-08-07T06:08:09.163Z,19.39
2022-08-07T06:08:31.291Z,19.39
2022-08-07T06:10:03.833Z,19.37
2022-08-07T06:10:29.000Z,19.38
2022-08-07T06:11:27.999Z,19.40
2022-08-07T06:12:32.972Z,19.42
2022-08-07T06:14:10.583Z,19.44
2022-08-07T06:14:30.423Z,19.48
2022-08-07T06:15:38.513Z,19.50
2022-08-07T06:16:29.255Z,19.51
2022-08-07T06:17:30.658Z,19.50
2022-08-07T06:18:28.022Z,19.51
2022-08-07T06:19:52.211Z,19.48
2022-08-07T06:20:49.963Z,19.45
2022-08-07T06:22:14.941Z,19.42
2022-08-07T06:22:28.895Z,19.42
2022-08-07T06:24:37.099Z,19.44
2022-08-07T06:24:37.456Z,19.49
2022-08-07T06:25:28.792Z,19.52
2022-08-07T06:26:28.821Z,19.53
2022-08-07T06:28:00.305Z,19.55
2022-08-07T06:28:28.932Z,19.54
2022-08-07T06:29:27.742Z,19.55
2022-08-07T06:30:35.990Z,19.57
2022-08-07T06:31:47.238Z,19.58
2022-08-07T06:32:29.376Z,19.58
2022-08-07T06:33:29.538Z,19.60
2022-08-07T06:34:28.061Z,19.62
2022-08-07T06:35:30.580Z,19.66
2022-08-07T06:36:35.527Z,19.72
2022-08-07T06:37:28.646Z,19.78
2022-08-07T06:38:28.671Z,19.79
2022-08-07T06:40:13.462Z,19.78
2022-08-07T06:40:34.316Z,19.73
2022-08-07T06:42:00.658Z,19.71
2022-08-07T06:42:34.794Z,19.66
2022-08-07T06:43:39.608Z,19.63
2022-08-07T06:44:31.062Z,19.64
2022-08-07T06:45:28.541Z,19.68
2022-08-07T06:46:35.095Z,19.72
2022-08-07T06:47:28.728Z,19.74
2022-08-07T06:48:28.500Z,19.77
2022-08-07T06:49:28.007Z,19.83
2022-08-07T06:50:27.494Z,19.85
2022-08-07T06:51:33.180Z,19.90
2022-08-07T06:52:32.095Z,19.93
2022-08-07T06:55:30.084Z,19.94
2022-08-07T06:55:31.422Z,19.96
2022-08-07T06:55:47.933Z,20.00
2022-08-07T06:56:28.386Z,20.02
2022-08-07T06:57:39.322Z,20.03
2022-08-07T06:58:28.790Z,20.00
2022-08-07T07:00:13.247Z,19.97
2022-08-07T07:00:28.332Z,19.95
2022-08-07T07:01:32.973Z,19.95
2022-08-07T07:02:53.555Z,19.97
2022-08-07T07:03:47.936Z,20.01
2022-08-07T07:04:33.259Z,20.05
2022-08-07T07:06:03.615Z,20.08
2022-08-07T07:06:28.277Z,20.10
2022-08-07T07:08:00.331Z,20.15
2022-08-07T07:08:28.447Z,20.20
2022-08-07T07:09:30.918Z,20.23
2022-08-07T07:10:27.208Z,20.29
2022-08-07T07:12:08.835Z,20.33
2022-08-07T07:12:31.451Z,20.34
2022-08-07T07:13:56.613Z,20.30
2022-08-07T07:14:28.146Z,20.23
2022-08-07T07:15:32.699Z,20.20
2022-08-07T07:16:30.433Z,20.22
2022-08-07T07:17:38.925Z,20.26
2022-08-07T07:18:37.676Z,20.29
2022-08-07T07:19:57.281Z,20.29
2022-08-07T07:20:28.079Z,20.28
2022-08-07T07:21:40.432Z,20.28
2022-08-07T07:22:36.857Z,20.24
2022-08-07T07:24:11.295Z,20.22
2022-08-07T07:24:28.031Z,20.24
2022-08-07T07:26:34.379Z,20.25
2022-08-07T07:26:34.959Z,20.24
2022-08-07T07:27:35.821Z,20.27
2022-08-07T07:28:29.741Z,20.31
2022-08-07T07:29:39.918Z,20.34
2022-08-07T07:30:38.593Z,20.39
2022-08-07T07:31:30.262Z,20.42
2022-08-07T07:32:27.908Z,20.45
2022-08-07T07:33:26.999Z,20.47
2022-08-07T07:34:31.169Z,20.49
2022-08-07T07:35:27.871Z,20.51
2022-08-07T07:36:32.706Z,20.50
2022-08-07T07:37:47.256Z,20.50
2022-08-07T07:38:27.830Z,20.53
2022-08-07T07:39:26.852Z,20.59
2022-08-07T07:40:27.791Z,20.66
2022-08-07T07:41:30.879Z,20.72
2022-08-07T07:42:32.439Z,20.73
2022-08-07T07:43:27.748Z,20.77
2022-08-07T07:44:27.732Z,20.77
2022-08-07T07:46:37.072Z,20.76
2022-08-07T07:46:40.373Z,20.75
2022-08-07T07:47:27.746Z,20.73
2022-08-07T07:48:35.941Z,20.71
2022-08-07T07:50:35.669Z,20.72
2022-08-07T07:50:35.973Z,20.70
2022-08-07T07:51:27.632Z,20.68
2022-08-07T07:52:27.033Z,20.69
2022-08-07T07:53:26.613Z,20.71
2022-08-07T07:54:26.775Z,20.75
2022-08-07T07:55:26.593Z,20.78
2022-08-07T07:56:30.359Z,20.79
2022-08-07T07:57:51.518Z,20.80
2022-08-07T07:58:28.630Z,20.84
2022-08-07T07:59:52.150Z,20.88
2022-08-07T08:00:29.583Z,20.88
2022-08-07T08:02:01.775Z,20.91
2022-08-07T08:02:35.381Z,20.96
2022-08-07T08:04:11.087Z,21.02
2022-08-07T08:04:27.654Z,21.06
2022-08-07T08:05:28.610Z,21.08
2022-08-07T08:06:27.458Z,21.05
2022-08-07T08:07:59.574Z,21.03
2022-08-07T08:08:34.763Z,21.03
2022-08-07T08:09:29.107Z,21.05
2022-08-07T08:10:35.671Z,21.06
2022-08-07T08:11:59.165Z,21.07
2022-08-07T08:12:52.088Z,21.06
2022-08-07T08:13:36.751Z,21.04
2022-08-07T08:14:27.329Z,21.03
2022-08-07T08:15:26.434Z,21.06
2022-08-07T08:16:26.298Z,21.08
2022-08-07T08:17:57.733Z,21.09
2022-08-07T08:18:27.287Z,21.11
2022-08-07T08:20:18.657Z,21.14
2022-08-07T08:20:31.976Z,21.17
2022-08-07T08:21:55.889Z,21.21
2022-08-07T08:22:32.800Z,21.24
2022-08-07T08:23:27.902Z,21.27
2022-08-07T08:24:45.041Z,21.31
2022-08-07T08:25:42.924Z,21.33
2022-08-07T08:26:27.156Z,21.34
2022-08-07T08:27:26.346Z,21.37
2022-08-07T08:28:37.933Z,21.42
2022-08-07T08:29:27.137Z,21.46
2022-08-07T08:30:26.103Z,21.48
2022-08-07T08:31:59.096Z,21.46
2022-08-07T08:32:38.243Z,21.44
2022-08-07T08:33:28.827Z,21.46
2022-08-07T08:34:29.115Z,21.49
2022-08-07T08:35:28.843Z,21.52
2022-08-07T08:36:29.846Z,21.52
2022-08-07T08:37:59.384Z,21.52
2022-08-07T08:38:29.983Z,21.55
2022-08-07T08:39:39.809Z,21.60
2022-08-07T08:40:28.571Z,21.64
2022-08-07T08:41:25.957Z,21.68
2022-08-07T08:42:26.948Z,21.71
2022-08-07T08:43:42.453Z,21.76
2022-08-07T08:44:29.566Z,21.80
2022-08-07T08:45:26.652Z,21.83
2022-08-07T08:46:26.910Z,21.86
2022-08-07T08:47:25.998Z,21.89
2022-08-07T08:48:32.401Z,21.93
2022-08-07T08:49:33.129Z,21.99
2022-08-07T08:50:35.323Z,22.03
2022-08-07T08:51:49.890Z,22.09
2022-08-07T08:52:30.394Z,22.14
2022-08-07T08:53:29.425Z,22.18
2022-08-07T08:54:25.813Z,22.23
2022-08-07T08:55:54.351Z,22.25
2022-08-07T08:56:26.751Z,22.30
2022-08-07T08:57:26.906Z,22.36
2022-08-07T08:58:29.012Z,22.42
2022-08-07T08:59:25.701Z,22.52
2022-08-07T09:00:28.612Z,22.59
2022-08-07T09:01:29.939Z,22.66
2022-08-07T09:02:35.266Z,22.73
2022-08-07T09:03:47.930Z,22.82
2022-08-07T09:04:28.628Z,22.90
2022-08-07T09:05:37.471Z,22.98
2022-08-07T09:06:27.811Z,23.06
2022-08-07T09:07:25.612Z,23.13
2022-08-07T09:08:28.514Z,23.19
2022-08-07T09:09:30.167Z,23.21
2022-08-07T09:10:26.613Z,23.25
2022-08-07T09:11:51.179Z,23.29
2022-08-07T09:12:31.838Z,23.32
2022-08-07T09:13:37.067Z,23.31
2022-08-07T09:14:29.542Z,23.32
2022-08-07T09:16:21.617Z,23.33
2022-08-07T09:16:30.698Z,23.33
2022-08-07T09:17:25.476Z,23.31
2022-08-07T09:18:26.458Z,23.33
2022-08-07T09:19:51.168Z,23.36
2022-08-07T09:20:35.754Z,23.40
2022-08-07T09:21:34.023Z,23.46
2022-08-07T09:24:30.994Z,23.50
2022-08-07T09:24:33.075Z,23.49
2022-08-07T09:24:34.137Z,23.52
2022-08-07T09:25:27.419Z,23.46
2022-08-07T09:26:25.375Z,23.46
2022-08-07T09:27:28.744Z,23.46
2022-08-07T09:30:03.471Z,23.48
2022-08-07T09:30:06.430Z,23.47
2022-08-07T09:30:28.101Z,23.51
2022-08-07T09:31:25.286Z,23.57
2022-08-07T09:32:26.449Z,23.60
2022-08-07T09:33:52.937Z,23.59
2022-08-07T09:34:27.307Z,23.59
2022-08-07T09:36:05.384Z,23.54
2022-08-07T09:36:27.092Z,23.48
2022-08-07T09:37:48.519Z,23.43
2022-08-07T09:38:26.226Z,23.39
2022-08-07T09:39:53.706Z,23.32
2022-08-07T09:40:26.225Z,23.29
2022-08-07T09:41:25.150Z,23.26
2022-08-07T09:42:25.327Z,23.24
2022-08-07T09:44:03.470Z,23.23
2022-08-07T09:44:32.694Z,23.26
2022-08-07T09:47:27.562Z,23.31
2022-08-07T09:47:49.765Z,23.36
2022-08-07T09:47:57.812Z,23.39
2022-08-07T09:48:30.175Z,23.38
2022-08-07T09:50:02.684Z,23.34
2022-08-07T09:50:26.549Z,23.35
2022-08-07T09:52:10.806Z,23.35
2022-08-07T09:52:34.257Z,23.39
2022-08-07T09:53:25.997Z,23.43
2022-08-07T09:54:27.230Z,23.47
2022-08-07T09:55:29.654Z,23.47
2022-08-07T09:56:34.018Z,23.47
2022-08-07T09:57:26.042Z,23.48
2022-08-07T09:58:31.915Z,23.50
2022-08-07T09:59:35.664Z,23.56
2022-08-07T10:00:29.920Z,23.60
2022-08-07T10:01:51.647Z,23.63
2022-08-07T10:02:29.778Z,23.66
2022-08-07T10:04:05.922Z,23.69
2022-08-07T10:04:32.470Z,23.70
2022-08-07T10:05:58.067Z,23.72
2022-08-07T10:06:25.873Z,23.73
2022-08-07T10:07:26.366Z,23.76
2022-08-07T10:08:25.823Z,23.77
2022-08-07T10:09:34.556Z,23.77
2022-08-07T10:10:28.327Z,23.76
2022-08-07T10:12:00.488Z,23.78
2022-08-07T10:12:26.117Z,23.79
2022-08-07T10:13:55.192Z,23.80
2022-08-07T10:14:30.313Z,23.81
2022-08-07T10:15:25.696Z,23.83
2022-08-07T10:16:24.813Z,23.86
2022-08-07T10:17:24.699Z,23.87
2022-08-07T10:18:27.187Z,23.89
2022-08-07T10:19:24.645Z,23.91
2022-08-07T10:20:31.721Z,23.95
2022-08-07T10:22:14.363Z,24.00
2022-08-07T10:22:33.731Z,24.01
2022-08-07T10:24:06.584Z,24.02
2022-08-07T10:24:25.587Z,24.03
2022-08-07T10:25:24.574Z,24.03
2022-08-07T10:26:25.575Z,24.02
2022-08-07T10:27:24.666Z,24.00
2022-08-07T10:28:25.541Z,23.96
2022-08-07T10:29:24.603Z,23.94
2022-08-07T10:30:26.409Z,23.92
2022-08-07T10:31:24.635Z,23.93
2022-08-07T10:32:50.942Z,23.96
2022-08-07T10:34:15.542Z,23.98
2022-08-07T10:34:31.723Z,24.01
2022-08-07T10:35:25.898Z,24.03
2022-08-07T10:36:29.469Z,24.04
2022-08-07T10:37:48.144Z,24.04
2022-08-07T10:38:36.108Z,24.05
2022-08-07T10:39:25.700Z,24.04
2022-08-07T10:40:30.091Z,24.04
2022-08-07T10:41:52.339Z,24.03
2022-08-07T10:42:31.258Z,24.04
2022-08-07T10:43:34.381Z,24.06
2022-08-07T10:44:28.418Z,24.04
2022-08-07T10:45:45.297Z,24.02
2022-08-07T10:46:25.482Z,24.02
2022-08-07T10:47:26.865Z,24.01
2022-08-07T10:48:25.258Z,24.02
2022-08-07T10:49:49.671Z,24.02
2022-08-07T10:50:25.952Z,24.01
2022-08-07T10:51:39.518Z,24.02
2022-08-07T10:52:31.795Z,24.04
2022-08-07T10:53:25.189Z,24.06
2022-08-07T10:54:24.239Z,24.09
2022-08-07T10:55:37.270Z,24.12
2022-08-07T10:56:31.588Z,24.16
2022-08-07T10:57:34.434Z,24.20
2022-08-07T10:58:33.170Z,24.23
2022-08-07T10:59:25.110Z,24.22
2022-08-07T11:00:36.489Z,24.22
2022-08-07T11:01:25.125Z,24.22
2022-08-07T11:02:33.526Z,24.20
2022-08-07T11:03:28.085Z,24.19
2022-08-07T11:04:32.353Z,24.18
2022-08-07T11:05:25.037Z,24.17
2022-08-07T11:06:26.885Z,24.17
2022-08-07T11:07:58.305Z,24.19
2022-08-07T11:08:29.112Z,24.20
2022-08-07T11:10:07.221Z,24.19
2022-08-07T11:10:27.382Z,24.21
2022-08-07T11:11:23.961Z,24.24
2022-08-07T11:12:32.071Z,24.28
2022-08-07T11:14:41.994Z,24.32
2022-08-07T11:15:00.783Z,24.34
2022-08-07T11:15:31.453Z,24.38
2022-08-07T11:16:29.790Z,24.41
2022-08-07T11:17:43.212Z,24.44
2022-08-07T11:18:24.859Z,24.46
2022-08-07T11:19:46.416Z,24.47
2022-08-07T11:20:24.548Z,24.46
2022-08-07T11:21:24.021Z,24.44
2022-08-07T11:22:32.368Z,24.40
2022-08-07T11:23:30.381Z,24.38
2022-08-07T11:24:24.785Z,24.39
2022-08-07T11:25:25.875Z,24.41
2022-08-07T11:26:23.755Z,24.42
2022-08-07T11:28:00.761Z,24.42
2022-08-07T11:28:25.031Z,24.43
2022-08-07T11:29:41.972Z,24.44
2022-08-07T11:30:39.183Z,24.43
2022-08-07T11:31:24.691Z,24.39
2022-08-07T11:32:25.402Z,24.35
2022-08-07T11:33:53.627Z,24.32
2022-08-07T11:34:24.669Z,24.33
2022-08-07T11:35:25.334Z,24.33
2022-08-07T11:36:25.477Z,24.36
2022-08-07T11:37:24.607Z,24.38
2022-08-07T11:38:26.114Z,24.40
2022-08-07T11:39:23.628Z,24.41
2022-08-07T11:40:23.749Z,24.43
2022-08-07T11:41:30.963Z,24.45
2022-08-07T11:42:29.443Z,24.48
2022-08-07T11:43:41.410Z,24.52
2022-08-07T11:44:24.518Z,24.56
2022-08-07T11:45:23.632Z,24.58
2022-08-07T11:46:23.660Z,24.61
2022-08-07T11:47:23.503Z,24.60
2022-08-07T11:48:29.768Z,24.60
2022-08-07T11:49:50.624Z,24.61
2022-08-07T11:50:31.558Z,24.63
2022-08-07T11:51:41.565Z,24.66
2022-08-07T11:52:29.316Z,24.67
2022-08-07T11:53:25.251Z,24.67
2022-08-07T11:54:25.522Z,24.67
2022-08-07T11:56:09.337Z,24.65
2022-08-07T11:56:27.206Z,24.64
2022-08-07T11:57:25.935Z,24.62
2022-08-07T11:58:33.476Z,24.60
2022-08-07T12:00:11.641Z,24.59
2022-08-07T12:00:28.297Z,24.58
2022-08-07T12:01:23.304Z,24.60
2022-08-07T12:02:30.741Z,24.62
2022-08-07T12:03:41.377Z,24.64
2022-08-07T12:04:24.316Z,24.65
2022-08-07T12:05:28.885Z,24.67
2022-08-07T12:06:37.773Z,24.69
2022-08-07T12:07:27.435Z,24.71
2022-08-07T12:08:31.806Z,24.73
2022-08-07T12:09:24.204Z,24.71
2022-08-07T12:10:23.359Z,24.70
2022-08-07T12:11:23.168Z,24.69
2022-08-07T12:12:23.264Z,24.68
2022-08-07T12:13:35.524Z,24.69
2022-08-07T12:14:24.113Z,24.68
2022-08-07T12:15:35.758Z,24.66
2022-08-07T12:16:30.034Z,24.68
2022-08-07T12:17:24.087Z,24.70
2022-08-07T12:18:29.673Z,24.74
2022-08-07T12:19:24.049Z,24.76
2022-08-07T12:20:30.625Z,24.76
2022-08-07T12:22:36.026Z,24.74
2022-08-07T12:22:37.501Z,24.73
2022-08-07T12:24:06.304Z,24.71
2022-08-07T12:24:37.051Z,24.72
2022-08-07T12:26:05.339Z,24.74
2022-08-07T12:26:29.854Z,24.77
2022-08-07T12:27:28.025Z,24.81
2022-08-07T12:28:24.152Z,24.83
2022-08-07T12:29:37.664Z,24.86
2022-08-07T12:30:23.897Z,24.88
2022-08-07T12:31:23.567Z,24.90
2022-08-07T12:32:22.898Z,24.91
2022-08-07T12:33:28.318Z,24.93
2022-08-07T12:34:25.979Z,24.97
2022-08-07T12:35:24.065Z,24.98
2022-08-07T12:36:32.871Z,25.00
2022-08-07T12:37:23.885Z,25.02
2022-08-07T12:38:29.285Z,25.03
2022-08-07T12:39:42.332Z,25.06
2022-08-07T12:40:46.874Z,25.08
2022-08-07T12:41:23.858Z,25.11
2022-08-07T12:42:27.589Z,25.12
2022-08-07T12:44:01.592Z,25.14
2022-08-07T12:44:23.717Z,25.16
2022-08-07T12:45:22.708Z,25.17
2022-08-07T12:46:31.967Z,25.18
2022-08-07T12:47:26.987Z,25.21
2022-08-07T12:48:27.673Z,25.22
2022-08-07T12:49:39.479Z,25.22
2022-08-07T12:50:39.564Z,25.22
2022-08-07T12:51:23.622Z,25.22
2022-08-07T12:52:27.106Z,25.23
2022-08-07T12:53:22.614Z,25.26
2022-08-07T12:54:37.132Z,25.28